Seastreak Highlands — WDE4031 — position and weather

sailwx.info

Track history (hours):
 
Tides and Currents Weather Stations Pressure Air Temp Water Temp Dewpoint Dewpoint Depression Visibility Wind Speed Wind Dir Waves Ship Positions

Seastreak Highlands

Owner: Seastreak llc, atlantic highlands, NJ. More information available from US FCC via Universal Licensing System and Coast Guard Vessel Documentation Center.

Last reported at 2015-Mar-06 13:33 UTC. Time now 2015-Mar-06 14:18 UTC.
Position N 40°39' W 074°02'.

Length 44 m; draft 2 m.

Type: High speed craft. MMSI: 367347670.

Date/timePositionNaut miles runAvg speedWind from/ knotsBaromVisibWave heightAir tempDewpointWater temp
2015-Mar-06 13:33N 40°39' W 074°02'5 4.9
2015-Mar-06 12:31N 40°33' W 074°02'6 6.0
2015-Mar-06 11:33N 40°39' W 074°02'14 2.2
2015-Mar-06 05:17N 40°25' W 074°02'0 0.0
2015-Mar-06 03:04N 40°25' W 074°02'0 0.0
2015-Mar-06 01:06N 40°25' W 074°02'0 0.0
2015-Mar-06 00:24N 40°25' W 074°02'1922.6
2015-Mar-05 23:34N 40°44' W 073°58'11 7.4
2015-Mar-05 22:07N 40°34' W 074°02'916.8
2015-Mar-05 21:33N 40°43' W 073°59'4 4.3
2015-Mar-05 20:32N 40°47' W 073°57'0 0.0
2015-Mar-05 16:22N 40°47' W 073°57'2 1.3
2015-Mar-05 14:33N 40°45' W 073°58'1816.8
2015-Mar-05 13:28N 40°26' W 074°02'7 7.1
2015-Mar-05 12:25N 40°34' W 074°02'6 7.0
2015-Mar-05 11:33N 40°40' W 074°02'8 0.7
2015-Mar-05 00:09N 40°32' W 074°02'1220.0
2015-Mar-04 23:33N 40°44' W 073°58'1713.4
2015-Mar-04 22:19N 40°27' W 074°02'1519.5
2015-Mar-04 21:33N 40°42' W 073°60'5 1.6
2015-Mar-04 18:20N 40°47' W 073°57'1 0.3
2015-Mar-04 15:09N 40°46' W 073°57'712.0
2015-Mar-04 14:33N 40°40' W 074°02'3 1.5
2015-Mar-04 12:33N 40°37' W 074°03'3 3.3
2015-Mar-04 11:33N 40°34' W 074°02'8 7.5
2015-Mar-04 10:25N 40°25' W 074°02'0 0.0
2015-Mar-04 09:15N 40°25' W 074°02'0 0.0
2015-Mar-04 07:25N 40°25' W 074°02'0 0.0
2015-Mar-04 06:18N 40°25' W 074°02'0 0.0
2015-Mar-04 05:20N 40°25' W 074°02'0 0.0
2015-Mar-04 04:19N 40°25' W 074°02'0 0.0
2015-Mar-04 03:26N 40°25' W 074°02'10 2.9
2015-Mar-04 00:07N 40°35' W 074°02'813.3
2015-Mar-03 23:33N 40°42' W 074°00'3 2.9
2015-Mar-03 22:33N 40°45' W 073°58'2 0.7
2015-Mar-03 19:11N 40°47' W 073°57'0 0.0
2015-Mar-03 17:29N 40°47' W 073°57'2 0.9
2015-Mar-03 15:33N 40°45' W 073°58'2013.6
2015-Mar-03 14:04N 40°25' W 074°02'11 7.5
2015-Mar-03 12:33N 40°36' W 074°03'2 1.7
2015-Mar-03 11:33N 40°35' W 074°02'10 0.9
2015-Mar-03 00:28N 40°25' W 074°02'17 8.7
2015-Mar-02 22:34N 40°42' W 074°00'1 0.7
2015-Mar-02 21:34N 40°42' W 073°60'9 5.8
2015-Mar-02 20:04N 40°34' W 074°02'915.7
2015-Mar-02 19:31N 40°42' W 074°00'4 1.0
2015-Mar-02 15:26N 40°46' W 073°57'1315.1
2015-Mar-02 14:33N 40°33' W 074°02'6 3.0
2015-Mar-02 12:33N 40°39' W 074°02'7 7.1
2015-Mar-02 11:31N 40°32' W 074°02'  
2015-Feb-27 22:34N 40°42' W 074°00'5 4.9
2015-Feb-27 21:32N 40°46' W 073°57'1 0.3
2015-Feb-27 19:26N 40°47' W 073°57'0 0.0
2015-Feb-27 18:25N 40°47' W 073°57'0 0.0
2015-Feb-27 17:05N 40°47' W 073°57'0 0.0
2015-Feb-27 16:33N 40°47' W 073°57'1 0.9
2015-Feb-27 15:32N 40°46' W 073°57'1616.1
2015-Feb-27 14:32N 40°30' W 074°02'12 5.8
2015-Feb-27 12:34N 40°42' W 074°00'10 9.9
2015-Feb-27 11:33N 40°32' W 074°02'7 5.4
2015-Feb-27 10:18N 40°25' W 074°02'0 0.0
2015-Feb-27 00:11N 40°25' W 074°02'1710.3
2015-Feb-26 22:33N 40°42' W 074°01'5 4.3
2015-Feb-26 21:28N 40°46' W 073°57'1 0.5
2015-Feb-26 19:20N 40°47' W 073°57'0 0.0
2015-Feb-26 17:19N 40°47' W 073°57'0 0.0
2015-Feb-26 16:24N 40°47' W 073°57'0 0.1
2015-Feb-26 15:32N 40°47' W 073°56'1615.6
2015-Feb-26 14:28N 40°31' W 074°02'9 4.9
2015-Feb-26 12:33N 40°40' W 074°02'8 8.1
2015-Feb-26 11:32N 40°32' W 074°02'7 6.0
2015-Feb-26 10:25N 40°25' W 074°02'17 1.4
2015-Feb-25 22:34N 40°42' W 074°01'4 3.4
2015-Feb-25 21:31N 40°45' W 073°58'0 0.0
2015-Feb-25 19:29N 40°45' W 073°58'0 0.0
2015-Feb-25 18:22N 40°45' W 073°58'0 0.0
2015-Feb-25 17:23N 40°45' W 073°58'0 0.0
2015-Feb-25 15:18N 40°45' W 073°58'0 0.0
2015-Feb-25 14:28N 40°45' W 073°58'1 0.4
2015-Feb-25 12:32N 40°44' W 073°58'1615.6
2015-Feb-25 11:31N 40°28' W 074°02'3 3.1
2015-Feb-25 10:31N 40°25' W 074°02'0 0.0
2015-Feb-25 00:33N 40°25' W 074°02'1 1.0
2015-Feb-24 23:14N 40°26' W 074°03'1623.0
2015-Feb-24 22:33N 40°42' W 074°00'3 3.1
2015-Feb-24 21:33N 40°45' W 073°58'3 0.5
2015-Feb-24 15:09N 40°42' W 074°00'0 0.0
2015-Feb-24 14:30N 40°42' W 074°00'  
Track history (hours):
 
Tides and Currents Weather Stations Pressure Air Temp Water Temp Dewpoint Dewpoint Depression Visibility Wind Speed Wind Dir Waves Ship Positions

Seastreak Highlands

Owner: Seastreak llc, atlantic highlands, NJ. More information available from US FCC via Universal Licensing System and Coast Guard Vessel Documentation Center.

Last reported at 2015-Mar-06 13:33 UTC. Time now 2015-Mar-06 14:18 UTC.
Position N 40°39' W 074°02'.

Length 44 m; draft 2 m.

Type: High speed craft. MMSI: 367347670.

Date/timePositionNaut miles runAvg speedWind from/ knotsBaromVisibWave heightAir tempDewpointWater temp
2015-Mar-06 13:33N 40°39' W 074°02'5 4.9
2015-Mar-06 12:31N 40°33' W 074°02'6 6.0
2015-Mar-06 11:33N 40°39' W 074°02'14 2.2
2015-Mar-06 05:17N 40°25' W 074°02'0 0.0
2015-Mar-06 03:04N 40°25' W 074°02'0 0.0
2015-Mar-06 01:06N 40°25' W 074°02'0 0.0
2015-Mar-06 00:24N 40°25' W 074°02'1922.6
2015-Mar-05 23:34N 40°44' W 073°58'11 7.4
2015-Mar-05 22:07N 40°34' W 074°02'916.8
2015-Mar-05 21:33N 40°43' W 073°59'4 4.3
2015-Mar-05 20:32N 40°47' W 073°57'0 0.0
2015-Mar-05 16:22N 40°47' W 073°57'2 1.3
2015-Mar-05 14:33N 40°45' W 073°58'1816.8
2015-Mar-05 13:28N 40°26' W 074°02'7 7.1
2015-Mar-05 12:25N 40°34' W 074°02'6 7.0
2015-Mar-05 11:33N 40°40' W 074°02'8 0.7
2015-Mar-05 00:09N 40°32' W 074°02'1220.0
2015-Mar-04 23:33N 40°44' W 073°58'1713.4
2015-Mar-04 22:19N 40°27' W 074°02'1519.5
2015-Mar-04 21:33N 40°42' W 073°60'5 1.6
2015-Mar-04 18:20N 40°47' W 073°57'1 0.3
2015-Mar-04 15:09N 40°46' W 073°57'712.0
2015-Mar-04 14:33N 40°40' W 074°02'3 1.5
2015-Mar-04 12:33N 40°37' W 074°03'3 3.3
2015-Mar-04 11:33N 40°34' W 074°02'8 7.5
2015-Mar-04 10:25N 40°25' W 074°02'0 0.0
2015-Mar-04 09:15N 40°25' W 074°02'0 0.0
2015-Mar-04 07:25N 40°25' W 074°02'0 0.0
2015-Mar-04 06:18N 40°25' W 074°02'0 0.0
2015-Mar-04 05:20N 40°25' W 074°02'0 0.0
2015-Mar-04 04:19N 40°25' W 074°02'0 0.0
2015-Mar-04 03:26N 40°25' W 074°02'10 2.9
2015-Mar-04 00:07N 40°35' W 074°02'813.3
2015-Mar-03 23:33N 40°42' W 074°00'3 2.9
2015-Mar-03 22:33N 40°45' W 073°58'2 0.7
2015-Mar-03 19:11N 40°47' W 073°57'0 0.0
2015-Mar-03 17:29N 40°47' W 073°57'2 0.9
2015-Mar-03 15:33N 40°45' W 073°58'2013.6
2015-Mar-03 14:04N 40°25' W 074°02'11 7.5
2015-Mar-03 12:33N 40°36' W 074°03'2 1.7
2015-Mar-03 11:33N 40°35' W 074°02'10 0.9
2015-Mar-03 00:28N 40°25' W 074°02'17 8.7
2015-Mar-02 22:34N 40°42' W 074°00'1 0.7
2015-Mar-02 21:34N 40°42' W 073°60'9 5.8
2015-Mar-02 20:04N 40°34' W 074°02'915.7
2015-Mar-02 19:31N 40°42' W 074°00'4 1.0
2015-Mar-02 15:26N 40°46' W 073°57'1315.1
2015-Mar-02 14:33N 40°33' W 074°02'6 3.0
2015-Mar-02 12:33N 40°39' W 074°02'7 7.1
2015-Mar-02 11:31N 40°32' W 074°02'  
2015-Feb-27 22:34N 40°42' W 074°00'5 4.9
2015-Feb-27 21:32N 40°46' W 073°57'1 0.3
2015-Feb-27 19:26N 40°47' W 073°57'0 0.0
2015-Feb-27 18:25N 40°47' W 073°57'0 0.0
2015-Feb-27 17:05N 40°47' W 073°57'0 0.0
2015-Feb-27 16:33N 40°47' W 073°57'1 0.9
2015-Feb-27 15:32N 40°46' W 073°57'1616.1
2015-Feb-27 14:32N 40°30' W 074°02'12 5.8
2015-Feb-27 12:34N 40°42' W 074°00'10 9.9
2015-Feb-27 11:33N 40°32' W 074°02'7 5.4
2015-Feb-27 10:18N 40°25' W 074°02'0 0.0
2015-Feb-27 00:11N 40°25' W 074°02'1710.3
2015-Feb-26 22:33N 40°42' W 074°01'5 4.3
2015-Feb-26 21:28N 40°46' W 073°57'1 0.5
2015-Feb-26 19:20N 40°47' W 073°57'0 0.0
2015-Feb-26 17:19N 40°47' W 073°57'0 0.0
2015-Feb-26 16:24N 40°47' W 073°57'0 0.1
2015-Feb-26 15:32N 40°47' W 073°56'1615.6
2015-Feb-26 14:28N 40°31' W 074°02'9 4.9
2015-Feb-26 12:33N 40°40' W 074°02'8 8.1
2015-Feb-26 11:32N 40°32' W 074°02'7 6.0
2015-Feb-26 10:25N 40°25' W 074°02'17 1.4
2015-Feb-25 22:34N 40°42' W 074°01'4 3.4
2015-Feb-25 21:31N 40°45' W 073°58'0 0.0
2015-Feb-25 19:29N 40°45' W 073°58'0 0.0
2015-Feb-25 18:22N 40°45' W 073°58'0 0.0
2015-Feb-25 17:23N 40°45' W 073°58'0 0.0
2015-Feb-25 15:18N 40°45' W 073°58'0 0.0
2015-Feb-25 14:28N 40°45' W 073°58'1 0.4
2015-Feb-25 12:32N 40°44' W 073°58'1615.6
2015-Feb-25 11:31N 40°28' W 074°02'3 3.1
2015-Feb-25 10:31N 40°25' W 074°02'0 0.0
2015-Feb-25 00:33N 40°25' W 074°02'1 1.0
2015-Feb-24 23:14N 40°26' W 074°03'1623.0
2015-Feb-24 22:33N 40°42' W 074°00'3 3.1
2015-Feb-24 21:33N 40°45' W 073°58'3 0.5
2015-Feb-24 15:09N 40°42' W 074°00'0 0.0
2015-Feb-24 14:30N 40°42' W 074°00'  

Dump ship's entire track history